Time;durP1;ratioP1;P1;durP2;ratioP2;P2;SDS_P1;SDS_P2;PMS_P1;PMS_P2;Temp;Humidity;BMP_temperature;BMP_pressure;BME280_temperature;BME280_humidity;BME280_pressure;Samples;Min_cycle;Max_cycle;Signal;HPM_P1;HPM_P2
2023/04/18 00:01:44;;;;;;;2.63;1.60;;;9.40;73.90;;;;;;5112952;28;20169;-69
2023/04/18 00:04:10;;;;;;;2.83;1.30;;;9.30;73.80;;;;;;5113347;28;20373;-69
2023/04/18 00:06:36;;;;;;;2.55;1.35;;;9.30;73.90;;;;;;5077863;28;20508;-69
2023/04/18 00:09:02;;;;;;;1.98;1.30;;;9.30;73.80;;;;;;5113128;28;20035;-70
2023/04/18 00:11:29;;;;;;;3.38;1.80;;;9.30;73.70;;;;;;5113356;28;20047;-69
2023/04/18 00:13:56;;;;;;;2.30;1.40;;;9.20;73.60;;;;;;5113186;28;20035;-69
2023/04/18 00:16:23;;;;;;;2.22;1.45;;;9.30;73.60;;;;;;5113440;28;20043;-69
2023/04/18 00:18:50;;;;;;;2.53;1.55;;;9.20;73.40;;;;;;5112753;28;20047;-69
2023/04/18 00:21:16;;;;;;;1.90;1.40;;;9.10;73.30;;;;;;5112680;28;20489;-69
2023/04/18 00:23:42;;;;;;;1.95;1.60;;;9.10;73.20;;;;;;5112664;28;20074;-70
2023/04/18 00:26:08;;;;;;;2.80;1.70;;;9.00;73.10;;;;;;5113001;28;20393;-68
2023/04/18 00:28:33;;;;;;;3.20;1.63;;;9.10;73.10;;;;;;5112665;28;20036;-69
2023/04/18 00:30:59;;;;;;;3.33;1.70;;;9.00;73.00;;;;;;5112696;28;20439;-69
2023/04/18 00:33:25;;;;;;;2.63;1.58;;;9.00;72.90;;;;;;5094328;28;20496;-69
2023/04/18 00:35:51;;;;;;;2.58;1.40;;;9.10;72.90;;;;;;5112591;28;20039;-68
2023/04/18 00:38:16;;;;;;;2.28;1.40;;;9.00;72.80;;;;;;5112518;28;20130;-69
2023/04/18 00:40:42;;;;;;;2.58;1.58;;;8.90;72.70;;;;;;5092296;28;20036;-68
2023/04/18 00:43:07;;;;;;;1.77;1.20;;;8.90;72.70;;;;;;5112350;28;20047;-69
2023/04/18 00:45:33;;;;;;;2.30;1.52;;;8.90;72.70;;;;;;5112222;28;20039;-69
2023/04/18 00:47:59;;;;;;;2.15;1.20;;;8.80;72.60;;;;;;5112314;28;20110;-69
2023/04/18 00:50:25;;;;;;;2.00;1.20;;;8.70;72.70;;;;;;5112508;28;20046;-69
2023/04/18 00:52:53;;;;;;;1.90;1.15;;;8.70;72.70;;;;;;5112237;28;20118;-69
2023/04/18 00:55:19;;;;;;;1.45;1.30;;;8.70;72.80;;;;;;5112502;28;20048;-68
2023/04/18 00:57:45;;;;;;;2.45;1.48;;;8.60;72.80;;;;;;5112368;28;20097;-68
2023/04/18 01:00:11;;;;;;;2.35;1.30;;;8.50;72.80;;;;;;5112578;28;20052;-69
2023/04/18 01:02:38;;;;;;;1.85;1.20;;;8.50;72.80;;;;;;5112120;28;20046;-69
2023/04/18 01:05:05;;;;;;;2.20;1.52;;;8.40;72.80;;;;;;5112503;28;20044;-69
2023/04/18 01:07:32;;;;;;;2.85;1.40;;;8.40;72.80;;;;;;5112568;28;20043;-68
2023/04/18 01:09:58;;;;;;;2.33;1.50;;;8.40;72.90;;;;;;5112523;28;20098;-69
2023/04/18 01:12:24;;;;;;;2.78;1.42;;;8.30;72.80;;;;;;5112117;28;20100;-69
2023/04/18 01:14:50;;;;;;;1.63;1.02;;;8.30;72.90;;;;;;5112491;28;20067;-69
2023/04/18 01:17:16;;;;;;;1.75;1.17;;;8.20;72.90;;;;;;5112512;28;20062;-69
2023/04/18 01:19:43;;;;;;;1.70;1.13;;;8.20;72.90;;;;;;5112025;28;20040;-68
2023/04/18 01:22:12;;;;;;;1.85;1.20;;;8.20;72.90;;;;;;5111819;28;20079;-69
2023/04/18 01:24:38;;;;;;;1.80;1.23;;;8.10;72.90;;;;;;5111887;28;20059;-69
2023/04/18 01:27:03;;;;;;;2.03;1.17;;;8.10;72.90;;;;;;5111759;28;20489;-69
2023/04/18 01:29:29;;;;;;;1.05;0.85;;;8.10;72.90;;;;;;5092651;28;20038;-69
2023/04/18 01:31:54;;;;;;;1.10;1.00;;;8.00;72.80;;;;;;5076794;28;20036;-69
2023/04/18 01:34:20;;;;;;;1.60;1.15;;;7.90;72.70;;;;;;5112124;28;20039;-69
2023/04/18 01:36:46;;;;;;;1.65;1.10;;;7.90;72.70;;;;;;5112347;28;20071;-69
2023/04/18 01:39:13;;;;;;;1.42;1.10;;;7.90;72.80;;;;;;5111955;28;20199;-69
2023/04/18 01:41:40;;;;;;;2.20;1.30;;;7.90;72.80;;;;;;5089457;28;20048;-69
2023/04/18 01:44:06;;;;;;;2.15;1.30;;;7.80;72.80;;;;;;5111766;28;20130;-69
2023/04/18 01:46:31;;;;;;;1.40;1.00;;;7.80;72.90;;;;;;5092424;28;20506;-69
2023/04/18 01:48:58;;;;;;;1.60;1.08;;;7.80;72.90;;;;;;5092117;28;20036;-69
2023/04/18 01:51:23;;;;;;;1.20;1.02;;;7.70;72.80;;;;;;5111466;28;20062;-68
2023/04/18 01:53:49;;;;;;;1.90;1.10;;;7.70;72.80;;;;;;5111555;28;20552;-69
2023/04/18 01:56:15;;;;;;;1.67;1.20;;;7.70;72.90;;;;;;5111460;28;20043;-68
2023/04/18 01:58:41;;;;;;;1.85;1.05;;;7.60;72.80;;;;;;5114326;28;20042;-69
2023/04/18 02:01:06;;;;;;;1.38;0.93;;;7.70;72.80;;;;;;5114950;28;20041;-69
2023/04/18 02:03:32;;;;;;;1.38;1.17;;;7.60;72.70;;;;;;5115224;28;20040;-69
2023/04/18 02:05:58;;;;;;;2.45;1.30;;;7.60;72.80;;;;;;5114991;28;20039;-69
2023/04/18 02:08:24;;;;;;;2.47;1.35;;;7.60;72.70;;;;;;5114829;28;20051;-68
2023/04/18 02:10:50;;;;;;;1.75;1.20;;;7.50;72.70;;;;;;5114746;28;20032;-69
2023/04/18 02:13:15;;;;;;;1.90;1.20;;;7.50;72.70;;;;;;5114893;28;20031;-69
2023/04/18 02:15:44;;;;;;;1.30;1.00;;;7.40;72.70;;;;;;5114915;28;20374;-69
2023/04/18 02:18:10;;;;;;;1.13;0.93;;;7.40;72.70;;;;;;5114461;28;20046;-69
2023/04/18 02:20:36;;;;;;;1.65;1.25;;;7.40;72.80;;;;;;5115081;28;20043;-68
2023/04/18 02:23:02;;;;;;;3.58;1.30;;;7.40;72.80;;;;;;5114787;28;20039;-68
2023/04/18 02:25:28;;;;;;;2.03;1.25;;;7.40;72.80;;;;;;5095957;28;20040;-69
2023/04/18 02:27:55;;;;;;;2.15;1.20;;;7.30;72.80;;;;;;5115157;28;20427;-69
2023/04/18 02:30:21;;;;;;;2.10;1.15;;;7.30;72.70;;;;;;5114499;28;20031;-69
2023/04/18 02:32:50;;;;;;;1.60;1.10;;;7.30;72.70;;;;;;5114529;28;20443;-68
2023/04/18 02:35:17;;;;;;;1.75;1.10;;;7.20;72.60;;;;;;5114325;28;20047;-69
2023/04/18 02:37:42;;;;;;;2.05;1.00;;;7.30;72.60;;;;;;5095098;28;20039;-69
2023/04/18 02:40:08;;;;;;;1.45;1.00;;;7.30;72.70;;;;;;5094866;28;20456;-68
2023/04/18 02:42:35;;;;;;;2.45;1.40;;;7.30;72.60;;;;;;5114136;28;20533;-69
2023/04/18 02:45:01;;;;;;;1.73;1.10;;;7.20;72.50;;;;;;5095188;28;20048;-69
2023/04/18 02:47:26;;;;;;;1.52;1.20;;;7.20;72.50;;;;;;5094870;28;20136;-69
2023/04/18 02:49:52;;;;;;;2.13;1.23;;;7.20;72.60;;;;;;5114747;28;20031;-68
2023/04/18 02:52:17;;;;;;;1.20;1.02;;;7.10;72.60;;;;;;5114229;28;20063;-69
2023/04/18 02:54:43;;;;;;;2.55;1.50;;;7.10;72.60;;;;;;5114236;28;20035;-69
2023/04/18 02:57:09;;;;;;;2.20;1.15;;;7.10;72.70;;;;;;5114529;28;20032;-69
2023/04/18 02:59:34;;;;;;;2.28;1.27;;;7.00;72.70;;;;;;5114278;28;20173;-69
2023/04/18 03:02:00;;;;;;;1.42;1.10;;;7.10;72.80;;;;;;5114086;28;20043;-69
2023/04/18 03:04:25;;;;;;;1.75;1.10;;;7.00;72.80;;;;;;5096351;28;20517;-69
2023/04/18 03:06:52;;;;;;;1.48;1.08;;;7.00;72.80;;;;;;5095013;28;20377;-68
2023/04/18 03:09:17;;;;;;;1.42;1.10;;;7.00;72.80;;;;;;5113544;28;20209;-69
2023/04/18 03:11:43;;;;;;;2.33;1.30;;;7.00;72.80;;;;;;5094138;28;20119;-69
2023/04/18 03:14:09;;;;;;;1.63;1.02;;;7.00;72.80;;;;;;5114119;28;20059;-69
2023/04/18 03:16:35;;;;;;;2.58;1.27;;;7.00;72.80;;;;;;5113918;28;20042;-69
2023/04/18 03:19:00;;;;;;;1.55;1.13;;;6.90;72.70;;;;;;5114114;28;20075;-69
2023/04/18 03:21:26;;;;;;;2.20;1.23;;;6.90;72.70;;;;;;5094724;28;20056;-69
2023/04/18 03:23:52;;;;;;;1.83;1.08;;;7.00;72.80;;;;;;5094261;28;20032;-69
2023/04/18 03:26:18;;;;;;;1.40;1.00;;;6.90;72.80;;;;;;5093619;28;20085;-69
2023/04/18 03:28:44;;;;;;;2.10;1.15;;;6.90;72.80;;;;;;5113643;28;20048;-69
2023/04/18 03:31:09;;;;;;;1.30;0.93;;;6.90;72.80;;;;;;5113582;28;20516;-68
2023/04/18 03:33:35;;;;;;;1.30;0.90;;;6.80;72.80;;;;;;5113495;28;20036;-68
2023/04/18 03:36:01;;;;;;;1.13;0.90;;;6.80;72.80;;;;;;5113992;28;20047;-68
2023/04/18 03:38:26;;;;;;;1.58;1.10;;;6.80;72.90;;;;;;5113981;28;20036;-68
2023/04/18 03:40:52;;;;;;;1.30;0.93;;;6.80;72.90;;;;;;5113507;28;20039;-68
2023/04/18 03:43:19;;;;;;;1.55;1.00;;;6.80;73.00;;;;;;5113314;28;20044;-69
2023/04/18 03:45:46;;;;;;;2.00;1.10;;;6.70;72.90;;;;;;5113485;28;20058;-69
2023/04/18 03:48:13;;;;;;;1.38;1.02;;;6.70;72.90;;;;;;5113265;28;20032;-68
2023/04/18 03:50:38;;;;;;;2.20;1.20;;;6.80;73.00;;;;;;5113298;28;20131;-69
2023/04/18 03:53:04;;;;;;;1.17;0.95;;;6.90;73.00;;;;;;5113241;28;20043;-69
2023/04/18 03:55:30;;;;;;;2.30;1.35;;;6.80;72.80;;;;;;5113661;28;20035;-69
2023/04/18 03:57:57;;;;;;;1.75;1.30;;;6.80;72.80;;;;;;5113395;28;20481;-69
2023/04/18 04:00:24;;;;;;;1.95;1.20;;;6.90;72.70;;;;;;5060161;28;20051;-68
2023/04/18 04:02:49;;;;;;;2.17;1.30;;;6.90;72.60;;;;;;5077792;28;20104;-69
2023/04/18 04:05:15;;;;;;;2.00;1.20;;;6.90;72.60;;;;;;5113649;28;20048;-69
2023/04/18 04:07:41;;;;;;;2.53;1.30;;;6.90;72.60;;;;;;5113229;28;20046;-69
2023/04/18 04:10:07;;;;;;;1.27;1.00;;;6.90;72.50;;;;;;5094559;28;20047;-69
2023/04/18 04:12:33;;;;;;;1.70;1.02;;;6.90;72.50;;;;;;5113647;28;20077;-69
2023/04/18 04:14:58;;;;;;;2.65;1.35;;;6.90;72.50;;;;;;5113318;28;20055;-69
2023/04/18 04:17:24;;;;;;;1.55;1.05;;;7.00;72.50;;;;;;5113065;28;20134;-69
2023/04/18 04:19:50;;;;;;;1.63;1.20;;;7.00;72.50;;;;;;5111993;28;20044;-69
2023/04/18 04:22:16;;;;;;;1.80;1.25;;;7.00;72.50;;;;;;5113136;28;20040;-69
2023/04/18 04:24:41;;;;;;;2.63;1.30;;;7.00;72.40;;;;;;5113290;28;20051;-69
2023/04/18 04:27:07;;;;;;;1.60;1.00;;;7.10;72.50;;;;;;5113543;28;20039;-70
2023/04/18 04:29:34;;;;;;;1.73;1.15;;;7.10;72.50;;;;;;5113321;28;20474;-69
2023/04/18 04:31:59;;;;;;;2.58;1.40;;;7.10;72.50;;;;;;5113013;28;20050;-69
2023/04/18 04:34:25;;;;;;;1.38;1.20;;;7.10;72.50;;;;;;5112909;28;20032;-69
2023/04/18 04:36:52;;;;;;;2.33;1.40;;;7.10;72.50;;;;;;5112982;28;20127;-69
2023/04/18 04:39:18;;;;;;;2.30;1.20;;;7.20;72.50;;;;;;5094903;28;20062;-69
2023/04/18 04:41:45;;;;;;;1.70;0.95;;;7.10;72.40;;;;;;5113177;28;20128;-69
2023/04/18 04:44:11;;;;;;;1.38;1.00;;;7.20;72.40;;;;;;5112795;28;20046;-69
2023/04/18 04:46:39;;;;;;;2.00;1.10;;;7.20;72.40;;;;;;5059631;28;20040;-69
2023/04/18 04:49:04;;;;;;;1.50;1.10;;;7.20;72.30;;;;;;5092519;28;20036;-69
2023/04/18 04:51:30;;;;;;;2.45;0.95;;;7.20;72.30;;;;;;5112572;28;20097;-69
2023/04/18 04:53:56;;;;;;;2.15;1.20;;;7.30;72.30;;;;;;5112588;28;20075;-69
2023/04/18 04:56:22;;;;;;;2.03;1.35;;;7.30;72.30;;;;;;5092685;28;20043;-69
2023/04/18 04:58:48;;;;;;;2.72;1.50;;;7.30;72.20;;;;;;5094251;28;20048;-68
2023/04/18 05:01:15;;;;;;;2.78;1.30;;;7.40;72.20;;;;;;5112792;28;20036;-69
2023/04/18 05:03:41;;;;;;;1.90;1.20;;;7.50;72.30;;;;;;5112690;28;20441;-68
2023/04/18 05:06:07;;;;;;;1.20;0.98;;;7.40;72.20;;;;;;5112563;28;20123;-68
2023/04/18 05:08:33;;;;;;;1.73;1.10;;;7.50;72.30;;;;;;5112424;28;20399;-69
2023/04/18 05:11:00;;;;;;;1.88;1.30;;;7.40;72.30;;;;;;5112727;28;20043;-69
2023/04/18 05:13:25;;;;;;;2.30;1.30;;;7.40;72.30;;;;;;5112389;28;20043;-70
2023/04/18 05:15:51;;;;;;;2.50;1.13;;;7.50;72.40;;;;;;5112406;28;20051;-69
2023/04/18 05:18:17;;;;;;;2.33;1.38;;;7.40;72.40;;;;;;5112639;28;20043;-68
2023/04/18 05:20:42;;;;;;;1.98;1.27;;;7.40;72.50;;;;;;5092185;28;20058;-70
2023/04/18 05:23:08;;;;;;;2.47;1.40;;;7.40;72.50;;;;;;5093581;28;20048;-70
2023/04/18 05:25:33;;;;;;;1.83;1.10;;;7.40;72.50;;;;;;5112550;28;20035;-68
2023/04/18 05:28:00;;;;;;;2.38;1.35;;;7.50;72.60;;;;;;5112152;28;20039;-70
2023/04/18 05:30:25;;;;;;;2.00;1.08;;;7.40;72.50;;;;;;5112178;28;20039;-68
2023/04/18 05:32:51;;;;;;;1.40;1.20;;;7.50;72.50;;;;;;5096045;28;20051;-68
2023/04/18 05:35:17;;;;;;;2.15;1.08;;;7.40;72.50;;;;;;5115548;28;20082;-70
2023/04/18 05:37:42;;;;;;;1.88;1.17;;;7.50;72.50;;;;;;5115616;28;20040;-68
2023/04/18 05:40:09;;;;;;;1.95;1.17;;;7.50;72.40;;;;;;5116054;28;20039;-68
2023/04/18 05:42:34;;;;;;;2.35;1.40;;;7.60;72.40;;;;;;5115775;28;20040;-68
2023/04/18 05:45:00;;;;;;;2.53;1.38;;;7.70;72.50;;;;;;5115845;28;20119;-68
2023/04/18 05:47:27;;;;;;;1.83;1.40;;;7.70;73.10;;;;;;5115472;28;20031;-68
2023/04/18 05:49:53;;;;;;;1.77;1.30;;;7.70;72.50;;;;;;5115450;28;20094;-68
2023/04/18 05:52:19;;;;;;;2.13;1.40;;;7.80;72.50;;;;;;5115998;28;20046;-68
2023/04/18 05:54:45;;;;;;;3.05;1.30;;;7.80;72.40;;;;;;5115886;28;20389;-68
2023/04/18 05:57:10;;;;;;;2.28;1.45;;;7.80;72.30;;;;;;5115873;28;20047;-68
2023/04/18 05:59:36;;;;;;;1.85;1.40;;;8.00;72.30;;;;;;5095438;28;20047;-68
2023/04/18 06:02:01;;;;;;;2.15;1.40;;;8.00;72.30;;;;;;5115675;28;20100;-68
2023/04/18 06:04:27;;;;;;;2.13;1.30;;;8.00;72.20;;;;;;5115168;28;20035;-68
2023/04/18 06:06:53;;;;;;;2.15;1.42;;;8.10;72.20;;;;;;5095344;28;20046;-68
2023/04/18 06:09:19;;;;;;;2.63;1.50;;;8.10;72.20;;;;;;5115150;28;20489;-68
2023/04/18 06:11:44;;;;;;;2.53;1.50;;;8.10;72.20;;;;;;5114854;28;20063;-68
2023/04/18 06:14:10;;;;;;;2.92;1.40;;;8.20;72.20;;;;;;5115470;28;20427;-68
2023/04/18 06:16:36;;;;;;;2.58;1.48;;;8.20;72.20;;;;;;5114911;28;20075;-68
2023/04/18 06:19:02;;;;;;;2.20;1.45;;;8.30;72.10;;;;;;5115423;28;20031;-68
2023/04/18 06:21:28;;;;;;;2.88;1.52;;;8.30;72.10;;;;;;5114905;28;20080;-68
2023/04/18 06:23:53;;;;;;;2.85;1.55;;;8.30;72.00;;;;;;5115074;28;20056;-68
2023/04/18 06:26:19;;;;;;;2.47;1.63;;;8.40;72.00;;;;;;5115338;28;20068;-68
2023/04/18 06:28:45;;;;;;;2.63;1.73;;;8.50;72.00;;;;;;5095702;28;20493;-68
2023/04/18 06:31:11;;;;;;;2.50;1.58;;;8.50;71.90;;;;;;5115290;28;20381;-68
2023/04/18 06:33:36;;;;;;;3.88;1.67;;;8.50;71.90;;;;;;5114742;28;20044;-68
2023/04/18 06:36:03;;;;;;;2.78;1.60;;;8.60;71.90;;;;;;5096503;28;20071;-68
2023/04/18 06:38:29;;;;;;;2.50;1.40;;;8.70;72.00;;;;;;5114561;28;20046;-68
2023/04/18 06:40:55;;;;;;;2.53;1.23;;;8.70;71.90;;;;;;5114576;28;20047;-68
2023/04/18 06:43:21;;;;;;;3.33;1.40;;;8.80;71.80;;;;;;5094737;28;20044;-68
2023/04/18 06:45:46;;;;;;;2.90;1.67;;;8.90;71.80;;;;;;5114605;28;20040;-68
2023/04/18 06:48:12;;;;;;;2.30;1.48;;;8.90;71.70;;;;;;5114262;28;20071;-68
2023/04/18 06:50:38;;;;;;;1.98;1.30;;;8.90;71.80;;;;;;5114403;28;20123;-68
2023/04/18 06:53:04;;;;;;;1.92;1.30;;;8.90;71.80;;;;;;5114412;28;20392;-68
2023/04/18 06:55:29;;;;;;;2.28;1.40;;;9.00;72.00;;;;;;5114442;28;20043;-69
2023/04/18 06:57:55;;;;;;;3.20;1.52;;;8.90;71.90;;;;;;5114451;28;20078;-68
2023/04/18 07:00:21;;;;;;;2.50;1.40;;;8.90;72.00;;;;;;5114926;28;20044;-68
2023/04/18 07:02:47;;;;;;;2.38;1.40;;;9.00;72.00;;;;;;5079108;28;20039;-69
2023/04/18 07:05:12;;;;;;;1.88;1.23;;;9.00;72.10;;;;;;5114098;28;20050;-67
2023/04/18 07:07:38;;;;;;;2.10;1.30;;;8.90;72.10;;;;;;5078039;28;20052;-68
2023/04/18 07:10:08;;;;;;;2.28;1.40;;;9.00;72.20;;;;;;5114608;28;20039;-69
2023/04/18 07:12:34;;;;;;;2.28;1.30;;;9.00;72.20;;;;;;5114270;28;20508;-70
2023/04/18 07:15:00;;;;;;;1.83;1.27;;;9.10;72.30;;;;;;5095197;28;20052;-70
2023/04/18 07:17:25;;;;;;;2.45;1.40;;;9.20;72.10;;;;;;5078918;28;20047;-69
2023/04/18 07:19:51;;;;;;;2.05;1.20;;;9.30;71.90;;;;;;5077176;28;20085;-70
2023/04/18 07:22:17;;;;;;;2.00;0.95;;;9.30;71.80;;;;;;5095582;28;20063;-68
2023/04/18 07:24:42;;;;;;;2.15;1.30;;;9.40;71.80;;;;;;5094881;28;20044;-70
2023/04/18 07:27:08;;;;;;;1.88;1.17;;;9.60;71.80;;;;;;5114399;28;20092;-69
2023/04/18 07:29:34;;;;;;;1.40;1.10;;;9.70;71.70;;;;;;5095507;28;20046;-70
2023/04/18 07:32:00;;;;;;;2.05;1.30;;;9.60;71.60;;;;;;5078425;28;20066;-69
2023/04/18 07:34:28;;;;;;;1.77;1.33;;;9.60;71.60;;;;;;5113566;28;20071;-68
2023/04/18 07:36:56;;;;;;;2.05;1.33;;;9.70;71.60;;;;;;5093671;28;20040;-69
2023/04/18 07:39:21;;;;;;;2.88;1.50;;;9.80;71.60;;;;;;5113948;28;20040;-70
2023/04/18 07:41:47;;;;;;;3.65;1.50;;;9.80;71.50;;;;;;5113592;28;20040;-69
2023/04/18 07:44:12;;;;;;;1.45;1.20;;;9.80;71.60;;;;;;5113746;28;20481;-70
2023/04/18 07:46:38;;;;;;;1.33;1.02;;;9.90;71.70;;;;;;5096038;28;20035;-70
2023/04/18 07:49:04;;;;;;;1.63;1.15;;;10.00;71.70;;;;;;5095459;28;20043;-69
2023/04/18 07:51:31;;;;;;;1.88;1.00;;;10.10;71.60;;;;;;5094330;28;20044;-69
2023/04/18 07:53:57;;;;;;;1.75;1.30;;;10.10;71.40;;;;;;5113478;28;20043;-70
2023/04/18 07:56:23;;;;;;;1.95;1.20;;;10.10;71.50;;;;;;5095074;28;20055;-69
2023/04/18 07:58:49;;;;;;;1.50;1.10;;;10.10;71.70;;;;;;5095658;28;20126;-68
2023/04/18 08:01:17;;;;;;;1.60;1.00;;;10.20;71.70;;;;;;5093681;28;20131;-68
2023/04/18 08:03:45;;;;;;;1.92;0.93;;;10.40;71.50;;;;;;5113375;28;20405;-70
2023/04/18 08:06:10;;;;;;;1.00;0.90;;;10.50;71.20;;;;;;5078456;28;20443;-70
2023/04/18 08:08:36;;;;;;;1.60;1.15;;;10.60;71.00;;;;;;5078036;28;20038;-68
2023/04/18 08:11:01;;;;;;;1.80;1.30;;;10.70;71.00;;;;;;5094982;28;20054;-69
2023/04/18 08:13:27;;;;;;;2.00;1.42;;;10.70;70.90;;;;;;5113287;28;20045;-71
2023/04/18 08:15:54;;;;;;;1.65;1.30;;;10.70;71.00;;;;;;5077452;28;20046;-69
2023/04/18 08:18:21;;;;;;;2.33;1.25;;;10.70;71.10;;;;;;5094157;28;20044;-68
2023/04/18 08:20:47;;;;;;;1.80;1.30;;;10.70;71.20;;;;;;5113566;28;20036;-69
2023/04/18 08:23:13;;;;;;;1.98;1.30;;;10.70;71.00;;;;;;5092618;28;20044;-69
2023/04/18 08:25:41;;;;;;;1.88;1.38;;;10.60;71.20;;;;;;5094650;28;20066;-69
2023/04/18 08:28:07;;;;;;;1.65;1.20;;;10.60;71.60;;;;;;5093521;28;20494;-69
2023/04/18 08:30:32;;;;;;;1.55;1.10;;;10.60;71.90;;;;;;5076358;28;20502;-68
2023/04/18 08:32:59;;;;;;;1.35;1.13;;;10.70;71.90;;;;;;5094222;28;20131;-69
2023/04/18 08:35:25;;;;;;;2.40;1.15;;;11.00;71.70;;;;;;5112739;28;20039;-69
2023/04/18 08:37:50;;;;;;;1.08;0.88;;;11.20;71.20;;;;;;5112938;28;20039;-70
2023/04/18 08:40:17;;;;;;;1.05;0.90;;;11.30;70.80;;;;;;5113082;28;20397;-68
2023/04/18 08:42:43;;;;;;;1.33;0.98;;;11.30;70.80;;;;;;5112594;28;20074;-70
2023/04/18 08:45:12;;;;;;;1.38;1.13;;;11.30;70.80;;;;;;5112565;28;20505;-71
2023/04/18 08:47:39;;;;;;;1.48;0.90;;;11.30;70.80;;;;;;5113087;28;20058;-70
2023/04/18 08:50:06;;;;;;;1.40;1.02;;;11.30;71.20;;;;;;5092570;28;20078;-70
2023/04/18 08:52:34;;;;;;;1.58;1.00;;;11.40;71.20;;;;;;5112945;28;20036;-70
2023/04/18 08:55:01;;;;;;;2.25;1.30;;;11.40;71.20;;;;;;5112601;28;20043;-69
2023/04/18 08:57:28;;;;;;;1.83;1.20;;;11.40;71.00;;;;;;5112551;28;20070;-70
2023/04/18 08:59:55;;;;;;;1.30;0.95;;;11.40;70.90;;;;;;5112539;28;20511;-69
2023/04/18 09:02:22;;;;;;;1.70;1.27;;;11.50;71.10;;;;;;5094208;28;20050;-69
2023/04/18 09:04:51;;;;;;;1.05;0.88;;;11.50;71.00;;;;;;5076819;28;20146;-70
2023/04/18 09:07:19;;;;;;;1.50;1.13;;;11.50;70.90;;;;;;5114821;28;20139;-70
2023/04/18 09:09:49;;;;;;;1.63;1.02;;;11.50;71.10;;;;;;5116044;28;20047;-69
2023/04/18 09:12:18;;;;;;;1.52;1.13;;;11.50;71.30;;;;;;5096550;28;20043;-69
2023/04/18 09:14:45;;;;;;;1.70;1.25;;;11.40;71.50;;;;;;5116394;28;20035;-71
2023/04/18 09:17:17;;;;;;;1.25;0.90;;;11.40;71.50;;;;;;5115901;28;20047;-72
2023/04/18 09:19:45;;;;;;;;;;;11.40;71.60;;;;;;5116343;28;20481;-69
2023/04/18 09:22:12;;;;;;;1.38;1.08;;;11.50;71.60;;;;;;5116361;28;20014;-71
2023/04/18 09:24:38;;;;;;;1.13;1.00;;;11.50;71.60;;;;;;5097198;28;20036;-69
2023/04/18 09:27:13;;;;;;;1.23;0.95;;;11.40;71.50;;;;;;5115734;28;20477;-70
2023/04/18 09:29:48;;;;;;;1.33;0.90;;;11.40;71.60;;;;;;5115487;28;20039;-70
2023/04/18 09:32:28;;;;;;;1.38;1.00;;;11.50;71.80;;;;;;5115851;28;20039;-70
2023/04/18 09:34:57;;;;;;;0.80;0.77;;;11.50;71.70;;;;;;5115585;28;20048;-69
2023/04/18 09:37:24;;;;;;;1.00;0.90;;;11.60;71.80;;;;;;5115932;28;20039;-69
2023/04/18 09:39:50;;;;;;;0.98;0.82;;;11.50;71.70;;;;;;5096012;28;20085;-69
2023/04/18 09:42:16;;;;;;;1.58;0.90;;;11.60;71.80;;;;;;5115331;28;20131;-69
2023/04/18 09:44:58;;;;;;;0.90;0.90;;;11.60;71.80;;;;;;5115966;28;20143;-70
2023/04/18 09:47:26;;;;;;;1.15;0.88;;;11.60;71.80;;;;;;5115565;28;20130;-69
2023/04/18 09:49:51;;;;;;;1.52;0.95;;;11.60;71.80;;;;;;5097851;28;20465;-69
2023/04/18 09:52:19;;;;;;;1.67;0.90;;;11.70;71.90;;;;;;5115473;28;20040;-71
2023/04/18 09:54:47;;;;;;;0.80;0.75;;;11.80;71.60;;;;;;5096783;28;20551;-71
2023/04/18 09:57:14;;;;;;;0.70;0.70;;;11.80;71.50;;;;;;5096848;28;20047;-70
2023/04/18 09:59:46;;;;;;;1.02;0.93;;;11.80;71.50;;;;;;5115805;28;20044;-70
2023/04/18 10:02:17;;;;;;;1.02;0.80;;;11.70;71.50;;;;;;5115295;28;20044;-70
2023/04/18 10:04:45;;;;;;;1.83;1.10;;;11.70;71.60;;;;;;5115694;28;20110;-69
2023/04/18 10:07:12;;;;;;;1.45;1.00;;;11.70;71.90;;;;;;5096082;28;20032;-68
2023/04/18 10:09:41;;;;;;;1.00;0.80;;;11.80;71.70;;;;;;5115565;28;20093;-69
2023/04/18 10:12:07;;;;;;;1.17;0.90;;;11.90;71.50;;;;;;5095205;28;20040;-69
2023/04/18 10:14:35;;;;;;;1.23;0.98;;;11.90;71.40;;;;;;5115170;28;20039;-69
2023/04/18 10:17:01;;;;;;;1.70;1.10;;;12.00;71.50;;;;;;5115196;28;20097;-69
2023/04/18 10:19:28;;;;;;;1.77;1.05;;;12.20;71.30;;;;;;5114493;28;20052;-69
2023/04/18 10:21:57;;;;;;;1.67;1.20;;;12.20;71.10;;;;;;5115240;28;20036;-69
2023/04/18 10:24:57;;;;;;;1.15;1.00;;;12.30;71.00;;;;;;5094858;28;20063;-70
2023/04/18 10:27:58;;;;;;;1.88;1.10;;;12.30;71.00;;;;;;5094632;28;20069;-69
2023/04/18 10:30:51;;;;;;;1.60;1.10;;;12.40;71.00;;;;;;5114692;28;20104;-68
2023/04/18 10:33:37;;;;;;;1.85;1.20;;;12.40;70.90;;;;;;5100043;28;20533;-69
2023/04/18 10:36:19;;;;;;;1.27;0.95;;;12.50;70.80;;;;;;5112632;28;20050;-68
2023/04/18 10:38:48;;;;;;;0.90;0.85;;;12.40;70.80;;;;;;5078063;28;20040;-69
2023/04/18 10:41:18;;;;;;;1.35;0.90;;;12.40;71.70;;;;;;5096335;28;20044;-70
2023/04/18 10:44:23;;;;;;;1.30;0.90;;;12.50;71.00;;;;;;5077802;28;20142;-70
2023/04/18 10:47:22;;;;;;;1.35;1.00;;;12.60;70.70;;;;;;5097445;28;20043;-69
2023/04/18 10:49:57;;;;;;;1.40;0.90;;;12.60;70.70;;;;;;5082732;28;20074;-70
2023/04/18 10:52:22;;;;;;;1.80;1.17;;;12.50;70.70;;;;;;5094670;28;20100;-70
2023/04/18 10:54:54;;;;;;;1.58;1.30;;;12.40;70.90;;;;;;5077825;28;20464;-70
2023/04/18 10:57:20;;;;;;;1.85;1.10;;;12.40;71.00;;;;;;5078697;28;20036;-69
2023/04/18 10:59:50;;;;;;;1.00;0.90;;;12.30;71.20;;;;;;5114932;28;20393;-69
2023/04/18 11:02:28;;;;;;;1.58;1.10;;;12.30;71.30;;;;;;5114692;28;20051;-69
2023/04/18 11:04:59;;;;;;;1.52;1.10;;;12.40;71.40;;;;;;5096244;28;20046;-71
2023/04/18 11:07:39;;;;;;;1.20;1.00;;;12.40;71.30;;;;;;5114689;28;20043;-71
2023/04/18 11:10:07;;;;;;;1.50;1.20;;;12.50;71.10;;;;;;5114753;28;20389;-68
2023/04/18 11:12:35;;;;;;;1.50;1.15;;;12.50;71.00;;;;;;5095967;28;20048;-68
2023/04/18 11:15:02;;;;;;;1.48;1.10;;;12.70;71.00;;;;;;5095487;28;20138;-68
2023/04/18 11:17:31;;;;;;;1.60;1.15;;;12.70;70.90;;;;;;5114459;28;20050;-69
2023/04/18 11:20:00;;;;;;;1.60;1.08;;;13.10;70.60;;;;;;5094915;28;20046;-69
2023/04/18 11:22:26;;;;;;;1.55;1.15;;;13.20;70.10;;;;;;5114448;28;20056;-69
2023/04/18 11:24:56;;;;;;;1.23;1.10;;;13.20;69.80;;;;;;5093953;28;20588;-68
2023/04/18 11:27:24;;;;;;;2.08;1.30;;;13.30;69.90;;;;;;5094172;28;20040;-69
2023/04/18 11:29:52;;;;;;;1.23;1.05;;;13.20;70.10;;;;;;5113673;28;20039;-69
2023/04/18 11:32:20;;;;;;;1.80;1.25;;;13.10;70.10;;;;;;5114389;28;20043;-70
2023/04/18 11:34:46;;;;;;;2.40;1.40;;;13.10;70.40;;;;;;5113752;28;20051;-70
2023/04/18 11:37:14;;;;;;;2.05;1.38;;;13.10;70.40;;;;;;5094037;28;20039;-70
2023/04/18 11:39:42;;;;;;;1.35;1.10;;;13.10;70.30;;;;;;5113628;28;20548;-69
2023/04/18 11:42:08;;;;;;;1.63;1.10;;;13.20;71.10;;;;;;5113994;28;20044;-69
2023/04/18 11:44:38;;;;;;;2.72;1.25;;;13.20;71.00;;;;;;5078197;28;20101;-70
2023/04/18 11:47:20;;;;;;;1.10;0.90;;;13.20;70.30;;;;;;5078084;28;20448;-70
2023/04/18 11:49:46;;;;;;;1.77;1.17;;;13.20;70.30;;;;;;5062777;28;20051;-71
2023/04/18 11:52:12;;;;;;;1.70;1.25;;;13.20;70.40;;;;;;5078447;28;20393;-70
2023/04/18 11:54:40;;;;;;;1.35;1.00;;;13.30;70.30;;;;;;5078543;28;20049;-70
2023/04/18 11:57:18;;;;;;;1.58;1.02;;;13.30;70.30;;;;;;5061150;28;20139;-70
2023/04/18 11:59:50;;;;;;;1.48;0.98;;;13.30;70.50;;;;;;5113703;28;20051;-70
2023/04/18 12:02:16;;;;;;;1.30;1.10;;;13.30;71.10;;;;;;5112916;28;20050;-70
2023/04/18 12:04:54;;;;;;;1.63;1.13;;;13.20;70.70;;;;;;5113207;28;20122;-71
2023/04/18 12:07:38;;;;;;;2.00;1.30;;;13.20;70.80;;;;;;5113553;28;20088;-68
2023/04/18 12:10:08;;;;;;;1.33;1.13;;;13.20;71.00;;;;;;5109973;28;20071;-69
2023/04/18 12:12:35;;;;;;;1.58;1.25;;;13.20;71.10;;;;;;5109783;28;20062;-70
2023/04/18 12:15:04;;;;;;;1.77;1.20;;;13.20;71.00;;;;;;5113476;28;20093;-68
2023/04/18 12:17:30;;;;;;;2.15;1.48;;;13.30;71.00;;;;;;5061537;28;20040;-70
2023/04/18 12:20:00;;;;;;;1.33;1.20;;;13.40;70.80;;;;;;5077231;28;20043;-69
2023/04/18 12:22:40;;;;;;;1.70;1.40;;;13.40;70.60;;;;;;5093921;28;20043;-69
2023/04/18 12:25:25;;;;;;;2.17;1.02;;;13.50;70.70;;;;;;5093318;28;20040;-69
2023/04/18 12:28:03;;;;;;;2.28;1.40;;;13.50;70.70;;;;;;5077383;28;20056;-69
2023/04/18 12:30:33;;;;;;;2.60;1.63;;;13.60;70.60;;;;;;5077895;28;20027;-70
2023/04/18 12:33:00;;;;;;;3.45;1.40;;;13.80;70.50;;;;;;5078020;28;20545;-70
2023/04/18 12:35:27;;;;;;;2.47;1.67;;;13.80;70.20;;;;;;5112677;28;20082;-69
2023/04/18 12:37:54;;;;;;;2.47;1.40;;;14.00;69.90;;;;;;5113179;28;20046;-70
2023/04/18 12:40:21;;;;;;;2.55;1.75;;;14.10;69.50;;;;;;5094205;28;20106;-69
2023/04/18 12:42:48;;;;;;;2.47;1.60;;;14.20;69.40;;;;;;5112488;28;20074;-70
2023/04/18 12:45:15;;;;;;;2.08;1.40;;;14.30;69.30;;;;;;5112888;28;20046;-69
2023/04/18 12:47:43;;;;;;;1.35;1.20;;;14.40;69.20;;;;;;5112506;28;20035;-70
2023/04/18 12:50:11;;;;;;;2.08;1.52;;;14.60;69.10;;;;;;5108755;28;20039;-69
2023/04/18 12:52:38;;;;;;;2.00;1.40;;;14.60;68.70;;;;;;5112230;28;20039;-70
2023/04/18 12:55:06;;;;;;;2.20;1.42;;;14.70;68.60;;;;;;5093625;28;20464;-69